createdAt,value
2023-04-16T00:00:21.432Z,4.95
2023-04-16T00:02:48.091Z,4.97
2023-04-16T00:05:15.776Z,4.68
2023-04-16T00:07:42.364Z,4.96
2023-04-16T00:10:08.916Z,5.35
2023-04-16T00:12:35.409Z,5.53
2023-04-16T00:15:02.458Z,6.05
2023-04-16T00:17:29.055Z,6.15
2023-04-16T00:19:55.745Z,5.29
2023-04-16T00:22:22.371Z,5.02
2023-04-16T00:24:48.907Z,5.21
2023-04-16T00:27:15.443Z,6.17
2023-04-16T00:29:42.195Z,6.03
2023-04-16T00:32:08.770Z,6.01
2023-04-16T00:34:35.276Z,5.56
2023-04-16T00:37:01.861Z,5.07
2023-04-16T00:39:28.475Z,5.21
2023-04-16T00:41:55.137Z,5.10
2023-04-16T00:44:21.670Z,4.84
2023-04-16T00:46:48.342Z,4.56
2023-04-16T00:49:15.246Z,4.25
2023-04-16T00:51:42.124Z,3.91
2023-04-16T00:54:08.684Z,3.99
2023-04-16T00:56:35.513Z,3.88
2023-04-16T00:59:03.079Z,3.01
2023-04-16T01:01:29.734Z,2.42
2023-04-16T01:03:56.709Z,2.12
2023-04-16T01:06:23.350Z,2.03
2023-04-16T01:08:49.853Z,1.91
2023-04-16T01:11:16.436Z,1.78
2023-04-16T01:13:43.177Z,1.59
2023-04-16T01:16:09.766Z,1.77
2023-04-16T01:18:36.391Z,1.70
2023-04-16T01:21:02.954Z,1.84
2023-04-16T01:23:29.530Z,2.11
2023-04-16T01:25:56.182Z,2.50
2023-04-16T01:28:23.037Z,2.88
2023-04-16T01:30:49.896Z,2.98
2023-04-16T01:33:16.371Z,3.17
2023-04-16T01:35:45.652Z,3.13
2023-04-16T01:38:12.415Z,3.20
2023-04-16T01:40:40.052Z,3.30
2023-04-16T01:43:06.674Z,3.41
2023-04-16T01:45:33.259Z,3.42
2023-04-16T01:47:59.819Z,3.62
2023-04-16T01:50:26.631Z,3.45
2023-04-16T01:52:53.203Z,3.69
2023-04-16T01:55:19.786Z,4.16
2023-04-16T01:57:46.306Z,4.05
2023-04-16T02:00:13.149Z,3.91
2023-04-16T02:02:39.846Z,3.61
2023-04-16T02:05:06.438Z,3.44
2023-04-16T02:07:32.944Z,3.49
2023-04-16T02:10:00.213Z,3.30
2023-04-16T02:12:27.104Z,3.53
2023-04-16T02:14:53.598Z,3.37
2023-04-16T02:17:22.043Z,3.43
2023-04-16T02:19:48.599Z,3.31
2023-04-16T02:22:16.305Z,3.18
2023-04-16T02:24:42.847Z,3.00
2023-04-16T02:27:10.818Z,2.95
2023-04-16T02:29:37.397Z,3.32
2023-04-16T02:32:04.295Z,3.72
2023-04-16T02:34:30.784Z,4.32
2023-04-16T02:36:57.341Z,4.94
2023-04-16T02:39:23.943Z,5.22
2023-04-16T02:44:45.758Z,4.34
2023-04-16T02:47:12.310Z,4.15
2023-04-16T02:49:38.964Z,4.07
2023-04-16T02:52:07.952Z,4.31
2023-04-16T02:54:34.544Z,4.81
2023-04-16T02:57:07.188Z,5.62
2023-04-16T02:59:34.736Z,6.57
2023-04-16T03:02:01.287Z,6.24
2023-04-16T03:04:28.108Z,6.20
2023-04-16T03:06:54.699Z,5.67
2023-04-16T03:09:21.248Z,5.39
2023-04-16T03:11:48.092Z,5.28
2023-04-16T03:14:15.978Z,6.32
2023-04-16T03:16:42.546Z,6.17
2023-04-16T03:19:09.303Z,6.02
2023-04-16T03:21:38.469Z,6.26
2023-04-16T03:24:05.009Z,6.13
2023-04-16T03:26:32.287Z,6.35
2023-04-16T03:28:58.838Z,5.70
2023-04-16T03:31:25.454Z,5.62
2023-04-16T03:33:53.095Z,5.62
2023-04-16T03:36:20.355Z,5.94
2023-04-16T03:38:46.975Z,6.15
2023-04-16T03:41:16.396Z,6.02
2023-04-16T03:43:43.000Z,5.48
2023-04-16T03:46:09.552Z,5.06
2023-04-16T03:48:36.431Z,5.22
2023-04-16T03:51:02.962Z,5.32
2023-04-16T03:53:29.538Z,5.08
2023-04-16T03:55:56.091Z,5.03
2023-04-16T03:58:22.877Z,5.08
2023-04-16T04:00:49.816Z,4.92
2023-04-16T04:03:16.702Z,4.42
2023-04-16T04:05:43.507Z,4.15
2023-04-16T04:08:11.801Z,4.23
2023-04-16T04:10:38.462Z,4.41
2023-04-16T04:13:05.054Z,4.68
2023-04-16T04:15:33.789Z,4.71
2023-04-16T04:18:00.376Z,4.61
2023-04-16T04:20:26.985Z,4.29
2023-04-16T04:22:53.806Z,4.43
2023-04-16T04:25:20.354Z,4.30
2023-04-16T04:27:46.921Z,4.45
2023-04-16T04:30:13.359Z,4.17
2023-04-16T04:32:40.660Z,4.32
2023-04-16T04:35:07.206Z,4.35
2023-04-16T04:37:33.951Z,4.40
2023-04-16T04:40:01.337Z,4.65
2023-04-16T04:42:27.937Z,4.71
2023-04-16T04:44:54.395Z,5.01
2023-04-16T04:47:21.194Z,5.13
2023-04-16T04:49:48.571Z,5.23
2023-04-16T04:52:15.128Z,5.80
2023-04-16T04:54:41.907Z,5.23
2023-04-16T04:57:08.467Z,5.24
2023-04-16T04:59:37.222Z,5.19
2023-04-16T05:02:03.829Z,4.76
2023-04-16T05:04:30.630Z,4.65
2023-04-16T05:06:57.145Z,4.50
2023-04-16T05:09:23.729Z,4.46
2023-04-16T05:14:52.908Z,4.09
2023-04-16T05:17:19.589Z,3.85
2023-04-16T05:19:47.166Z,3.28
2023-04-16T05:22:13.867Z,3.78
2023-04-16T05:24:42.622Z,3.47
2023-04-16T05:27:09.190Z,3.55
2023-04-16T05:29:35.751Z,3.64
2023-04-16T05:32:02.671Z,4.18
2023-04-16T05:34:29.130Z,5.06
2023-04-16T05:36:55.696Z,5.53
2023-04-16T05:39:23.527Z,5.17
2023-04-16T05:41:50.061Z,5.26
2023-04-16T05:44:16.911Z,5.56
2023-04-16T05:46:45.482Z,5.66
2023-04-16T05:49:12.873Z,5.72
2023-04-16T05:51:40.123Z,5.63
2023-04-16T05:54:06.858Z,5.81
2023-04-16T05:56:35.851Z,5.95
2023-04-16T05:59:03.206Z,5.59
2023-04-16T06:01:29.899Z,5.88
2023-04-16T06:03:56.895Z,5.98
2023-04-16T06:06:23.728Z,5.85
2023-04-16T06:08:50.335Z,5.56
2023-04-16T06:11:17.193Z,5.19
2023-04-16T06:13:43.757Z,5.46
2023-04-16T06:16:10.358Z,5.44
2023-04-16T06:18:46.870Z,5.29
2023-04-16T06:21:13.476Z,5.16
2023-04-16T06:23:39.954Z,4.93
2023-04-16T06:26:06.729Z,5.07
2023-04-16T06:28:33.238Z,4.96
2023-04-16T06:31:00.113Z,4.83
2023-04-16T06:33:26.950Z,4.55
2023-04-16T06:35:54.568Z,4.23
2023-04-16T06:38:21.161Z,4.27
2023-04-16T06:40:47.689Z,4.72
2023-04-16T06:43:14.263Z,5.39
2023-04-16T06:45:40.863Z,6.28
2023-04-16T06:48:10.370Z,7.13
2023-04-16T06:50:39.409Z,7.14
2023-04-16T06:53:06.108Z,6.98
2023-04-16T06:55:32.859Z,7.11
2023-04-16T06:57:59.708Z,7.57
2023-04-16T07:00:26.253Z,7.71
2023-04-16T07:02:57.090Z,8.25
2023-04-16T07:05:25.153Z,8.71
2023-04-16T07:07:51.684Z,9.16
2023-04-16T07:10:20.476Z,9.59
2023-04-16T07:12:49.220Z,9.54
2023-04-16T07:15:15.763Z,9.50
2023-04-16T07:17:44.712Z,9.41
2023-04-16T07:20:11.601Z,9.21
2023-04-16T07:22:38.447Z,10.00
2023-04-16T07:25:04.913Z,9.60
2023-04-16T07:27:32.130Z,9.46
2023-04-16T07:29:58.997Z,9.73
2023-04-16T07:32:28.066Z,9.50
2023-04-16T07:34:54.955Z,9.02
2023-04-16T07:37:21.771Z,8.51
2023-04-16T07:39:48.583Z,8.60
2023-04-16T07:44:59.299Z,9.15
2023-04-16T07:47:25.849Z,7.94
2023-04-16T07:49:52.668Z,7.96
2023-04-16T07:52:19.155Z,7.97
2023-04-16T07:54:45.864Z,7.82
2023-04-16T07:57:12.724Z,7.52
2023-04-16T07:59:40.237Z,7.48
2023-04-16T08:02:07.123Z,7.43
2023-04-16T08:04:34.181Z,7.83
2023-04-16T08:07:00.860Z,7.47
2023-04-16T08:09:27.428Z,7.35
2023-04-16T08:11:54.222Z,7.12
2023-04-16T08:14:20.852Z,6.85
2023-04-16T08:16:48.416Z,6.69
2023-04-16T08:19:15.066Z,6.25
2023-04-16T08:21:41.592Z,6.44
2023-04-16T08:24:08.471Z,7.18
2023-04-16T08:26:36.012Z,7.08
2023-04-16T08:29:02.615Z,7.31
2023-04-16T08:31:29.428Z,7.17
2023-04-16T08:33:56.397Z,6.46
2023-04-16T08:36:23.009Z,6.64
2023-04-16T08:38:49.762Z,6.62
2023-04-16T08:41:16.524Z,7.10
2023-04-16T08:43:44.089Z,6.64
2023-04-16T08:46:12.511Z,6.62
2023-04-16T08:48:39.070Z,6.57
2023-04-16T08:51:05.872Z,7.05
2023-04-16T08:53:32.695Z,6.55
2023-04-16T08:55:59.282Z,6.99
2023-04-16T08:58:26.501Z,7.07
2023-04-16T09:00:53.013Z,6.69
2023-04-16T09:03:20.116Z,6.52
2023-04-16T09:05:46.785Z,6.59
2023-04-16T09:08:13.295Z,5.78
2023-04-16T09:10:40.120Z,5.58
2023-04-16T09:13:06.716Z,5.55
2023-04-16T09:15:35.001Z,5.85
2023-04-16T09:18:01.803Z,5.79
2023-04-16T09:20:28.678Z,6.04
2023-04-16T09:22:57.363Z,5.86
2023-04-16T09:25:24.200Z,5.91
2023-04-16T09:27:50.665Z,5.81
2023-04-16T09:30:18.193Z,5.83
2023-04-16T09:32:44.748Z,6.18
2023-04-16T09:35:11.260Z,6.00
2023-04-16T09:37:37.857Z,5.87
2023-04-16T09:40:04.465Z,5.75
2023-04-16T09:42:31.093Z,5.89
2023-04-16T09:45:00.322Z,5.74
2023-04-16T09:47:32.930Z,5.80
2023-04-16T09:49:59.804Z,5.37
2023-04-16T09:52:29.010Z,5.20
2023-04-16T09:54:55.791Z,5.43
2023-04-16T09:57:22.605Z,5.29
2023-04-16T09:59:49.932Z,5.73
2023-04-16T10:02:16.739Z,5.66
2023-04-16T10:04:43.816Z,5.29
2023-04-16T10:07:10.399Z,5.96
2023-04-16T10:09:37.013Z,5.23
2023-04-16T10:12:03.897Z,5.09
2023-04-16T10:14:32.198Z,4.85
2023-04-16T10:16:58.806Z,4.95
2023-04-16T10:19:26.049Z,4.65
2023-04-16T10:21:54.954Z,4.24
2023-04-16T10:24:21.776Z,5.02
2023-04-16T10:26:48.199Z,5.22
2023-04-16T10:29:14.996Z,5.06
2023-04-16T10:31:42.314Z,5.22
2023-04-16T10:34:10.824Z,5.85
2023-04-16T10:36:37.431Z,6.33
2023-04-16T10:39:04.237Z,5.85
2023-04-16T10:41:30.815Z,6.15
2023-04-16T10:44:00.180Z,5.66
2023-04-16T10:46:26.927Z,5.76
2023-04-16T10:48:53.916Z,5.46
2023-04-16T10:51:20.554Z,5.90
2023-04-16T10:53:47.286Z,6.26
2023-04-16T10:56:13.858Z,6.21
2023-04-16T10:58:40.461Z,5.64
2023-04-16T11:01:07.225Z,5.75
2023-04-16T11:03:34.117Z,5.64
2023-04-16T11:06:00.815Z,5.79
2023-04-16T11:08:27.595Z,5.70
2023-04-16T11:10:55.839Z,5.33
2023-04-16T11:13:22.419Z,5.40
2023-04-16T11:15:49.824Z,5.07
2023-04-16T11:18:16.471Z,5.47
2023-04-16T11:20:45.515Z,5.58
2023-04-16T11:23:12.161Z,5.55
2023-04-16T11:25:39.658Z,5.54
2023-04-16T11:28:06.271Z,6.34
2023-04-16T11:30:33.180Z,7.72
2023-04-16T11:33:02.193Z,6.35
2023-04-16T11:35:28.803Z,6.01
2023-04-16T11:37:57.752Z,5.87
2023-04-16T11:40:24.343Z,6.35
2023-04-16T11:42:51.098Z,5.85
2023-04-16T11:45:19.992Z,5.71
2023-04-16T11:47:46.615Z,5.64
2023-04-16T11:50:13.178Z,5.25
2023-04-16T11:52:39.792Z,4.98
2023-04-16T11:55:08.836Z,5.18
2023-04-16T11:57:35.371Z,5.37
2023-04-16T12:00:03.942Z,5.02
2023-04-16T12:02:32.747Z,4.88
2023-04-16T12:04:59.690Z,4.44
2023-04-16T12:07:26.266Z,4.66
2023-04-16T12:09:52.729Z,4.21
2023-04-16T12:12:22.055Z,4.22
2023-04-16T12:14:48.511Z,4.11
2023-04-16T12:17:15.130Z,4.38
2023-04-16T12:19:42.047Z,5.01
2023-04-16T12:22:08.770Z,4.94
2023-04-16T12:24:35.307Z,5.20
2023-04-16T12:29:33.049Z,4.59
2023-04-16T12:32:02.093Z,4.16
2023-04-16T12:34:48.857Z,4.23
2023-04-16T12:37:15.685Z,4.37
2023-04-16T12:39:43.328Z,3.89
2023-04-16T12:42:10.597Z,4.19
2023-04-16T12:44:37.235Z,4.25
2023-04-16T12:47:04.785Z,4.44
2023-04-16T12:49:32.336Z,4.17
2023-04-16T12:51:59.617Z,4.18
2023-04-16T12:54:27.856Z,4.17
2023-04-16T12:56:54.682Z,4.98
2023-04-16T12:59:23.578Z,5.44
2023-04-16T13:01:50.425Z,4.66
2023-04-16T13:04:17.336Z,4.32
2023-04-16T13:06:46.403Z,3.87
2023-04-16T13:09:13.016Z,3.08
2023-04-16T13:11:39.514Z,2.83
2023-04-16T13:14:06.093Z,2.91
2023-04-16T13:16:32.586Z,3.32
2023-04-16T13:18:59.122Z,3.68
2023-04-16T13:21:25.933Z,3.94
2023-04-16T13:23:52.516Z,4.15
2023-04-16T13:26:18.946Z,4.35
2023-04-16T13:28:46.591Z,4.71
2023-04-16T13:31:13.135Z,5.08
2023-04-16T13:33:39.619Z,4.89
2023-04-16T13:36:06.604Z,5.51
2023-04-16T13:38:33.392Z,5.45
2023-04-16T13:40:59.996Z,4.86
2023-04-16T13:43:26.574Z,4.52
2023-04-16T13:45:53.298Z,4.88
2023-04-16T13:48:19.835Z,4.96
2023-04-16T13:50:47.576Z,5.02
2023-04-16T13:53:14.161Z,5.29
2023-04-16T13:55:40.646Z,5.53
2023-04-16T13:58:14.863Z,5.46
2023-04-16T14:00:41.819Z,4.90
2023-04-16T14:03:08.834Z,5.19
2023-04-16T14:05:35.423Z,5.21
2023-04-16T14:08:02.033Z,5.14
2023-04-16T14:10:28.670Z,4.69
2023-04-16T14:12:55.981Z,4.99
2023-04-16T14:15:22.669Z,5.46
2023-04-16T14:17:50.171Z,6.30
2023-04-16T14:20:16.633Z,6.95
2023-04-16T14:22:43.492Z,6.51
2023-04-16T14:25:10.062Z,6.33
2023-04-16T14:27:36.638Z,6.19
2023-04-16T14:30:03.249Z,6.54
2023-04-16T14:32:29.795Z,6.36
2023-04-16T14:34:56.709Z,6.66
2023-04-16T14:37:23.612Z,6.84
2023-04-16T14:39:52.589Z,6.92
2023-04-16T14:42:19.417Z,6.72
2023-04-16T14:44:46.004Z,7.66
2023-04-16T14:47:16.285Z,7.62
2023-04-16T14:49:43.177Z,7.79
2023-04-16T14:52:10.043Z,7.80
2023-04-16T14:54:37.992Z,8.08
2023-04-16T14:57:07.859Z,8.10
2023-04-16T14:59:34.548Z,8.43
2023-04-16T15:02:01.129Z,8.23
2023-04-16T15:04:28.368Z,7.77
2023-04-16T15:06:55.592Z,7.79
2023-04-16T15:09:22.317Z,7.73
2023-04-16T15:11:48.840Z,7.44
2023-04-16T15:14:15.308Z,7.70
2023-04-16T15:16:41.965Z,7.19
2023-04-16T15:19:09.168Z,6.82
2023-04-16T15:21:35.866Z,7.24
2023-04-16T15:24:04.510Z,6.81
2023-04-16T15:26:31.080Z,7.17
2023-04-16T15:28:57.895Z,6.63
2023-04-16T15:31:24.479Z,7.03
2023-04-16T15:33:51.137Z,6.72
2023-04-16T15:36:20.111Z,6.53
2023-04-16T15:38:46.673Z,6.49
2023-04-16T15:41:13.465Z,6.57
2023-04-16T15:43:40.044Z,6.69
2023-04-16T15:46:06.645Z,7.40
2023-04-16T15:48:33.566Z,7.28
2023-04-16T15:51:00.416Z,7.68
2023-04-16T15:53:27.185Z,7.85
2023-04-16T15:55:54.009Z,7.86
2023-04-16T15:58:20.525Z,7.63
2023-04-16T16:00:47.061Z,7.65
2023-04-16T16:03:13.731Z,7.96
2023-04-16T16:05:40.409Z,7.90
2023-04-16T16:08:08.771Z,8.00
2023-04-16T16:10:35.386Z,7.76
2023-04-16T16:13:01.947Z,7.81
2023-04-16T16:15:29.323Z,8.07
2023-04-16T16:17:55.976Z,7.60
2023-04-16T16:20:22.530Z,7.87
2023-04-16T16:22:49.428Z,7.87
2023-04-16T16:25:15.933Z,7.89
2023-04-16T16:27:42.446Z,7.79
2023-04-16T16:30:10.311Z,7.69
2023-04-16T16:32:37.198Z,6.86
2023-04-16T16:35:03.758Z,7.33
2023-04-16T16:37:30.369Z,7.76
2023-04-16T16:39:57.000Z,8.06
2023-04-16T16:42:23.555Z,7.98
2023-04-16T16:44:50.252Z,8.13
2023-04-16T16:47:17.140Z,8.08
2023-04-16T16:49:44.462Z,8.05
2023-04-16T16:52:11.212Z,7.85
2023-04-16T16:54:38.057Z,7.69
2023-04-16T16:57:05.447Z,7.37
2023-04-16T16:59:33.814Z,7.91
2023-04-16T17:02:00.363Z,7.96
2023-04-16T17:04:29.123Z,7.61
2023-04-16T17:06:55.698Z,6.89
2023-04-16T17:09:22.488Z,6.84
2023-04-16T17:11:49.330Z,6.14
2023-04-16T17:14:15.962Z,6.41
2023-04-16T17:16:42.534Z,6.55
2023-04-16T17:19:09.434Z,6.44
2023-04-16T17:21:36.234Z,6.31
2023-04-16T17:24:03.020Z,7.32
2023-04-16T17:26:29.657Z,6.92
2023-04-16T17:28:56.100Z,6.54
2023-04-16T17:31:23.480Z,6.75
2023-04-16T17:33:51.739Z,6.54
2023-04-16T17:36:18.986Z,6.10
2023-04-16T17:38:45.760Z,5.68
2023-04-16T17:41:14.426Z,5.81
2023-04-16T17:43:40.984Z,6.14
2023-04-16T17:46:09.935Z,6.53
2023-04-16T17:48:36.708Z,6.49
2023-04-16T17:51:03.626Z,6.57
2023-04-16T17:53:30.161Z,6.39
2023-04-16T17:55:57.040Z,6.73
2023-04-16T17:58:23.974Z,6.23
2023-04-16T18:00:51.137Z,6.39
2023-04-16T18:03:19.973Z,6.20
2023-04-16T18:05:48.145Z,6.18
2023-04-16T18:08:16.739Z,6.47
2023-04-16T18:10:45.268Z,6.60
2023-04-16T18:13:11.934Z,6.39
2023-04-16T18:15:38.621Z,7.40
2023-04-16T18:18:05.224Z,6.01
2023-04-16T18:20:34.408Z,5.66
2023-04-16T18:23:01.212Z,5.53
2023-04-16T18:25:34.350Z,4.94
2023-04-16T18:28:01.900Z,5.03
2023-04-16T18:30:28.793Z,5.27
2023-04-16T18:33:19.460Z,5.47
2023-04-16T18:35:41.953Z,5.56
2023-04-16T18:38:08.459Z,6.04
2023-04-16T18:40:35.120Z,7.04
2023-04-16T18:43:01.899Z,6.48
2023-04-16T18:45:34.302Z,6.67
2023-04-16T18:48:01.159Z,6.63
2023-04-16T18:50:27.719Z,7.78
2023-04-16T18:52:54.372Z,7.71
2023-04-16T18:55:21.208Z,7.43
2023-04-16T18:57:48.601Z,7.08
2023-04-16T19:00:17.422Z,5.94
2023-04-16T19:02:44.713Z,5.50
2023-04-16T19:05:11.470Z,5.25
2023-04-16T19:07:38.330Z,5.18
2023-04-16T19:10:05.000Z,4.92
2023-04-16T19:12:34.383Z,5.55
2023-04-16T19:15:01.056Z,5.54
2023-04-16T19:17:27.850Z,5.46
2023-04-16T19:19:54.684Z,6.05
2023-04-16T19:22:21.291Z,6.73
2023-04-16T19:24:47.912Z,6.72
2023-04-16T19:27:14.695Z,6.80
2023-04-16T19:29:41.324Z,6.69
2023-04-16T19:32:08.251Z,6.99
2023-04-16T19:34:35.213Z,7.19
2023-04-16T19:37:02.202Z,7.75
2023-04-16T19:39:28.832Z,7.32
2023-04-16T19:41:56.222Z,7.55
2023-04-16T19:44:22.877Z,7.65
2023-04-16T19:46:49.495Z,7.76
2023-04-16T19:49:16.113Z,7.33
2023-04-16T19:51:42.905Z,7.56
2023-04-16T19:54:09.759Z,7.30
2023-04-16T19:56:36.364Z,7.07
2023-04-16T19:59:03.900Z,6.95
2023-04-16T20:01:30.813Z,7.24
2023-04-16T20:03:59.440Z,6.80
2023-04-16T20:06:26.107Z,7.26
2023-04-16T20:08:52.659Z,6.89
2023-04-16T20:11:21.495Z,7.60
2023-04-16T20:13:52.181Z,7.71
2023-04-16T20:16:18.812Z,7.69
2023-04-16T20:18:45.422Z,8.09
2023-04-16T20:21:12.028Z,7.56
2023-04-16T20:23:39.557Z,7.59
2023-04-16T20:26:06.219Z,7.50
2023-04-16T20:28:32.795Z,7.24
2023-04-16T20:30:59.761Z,7.25
2023-04-16T20:33:26.317Z,7.67
2023-04-16T20:35:53.022Z,7.31
2023-04-16T20:38:19.532Z,7.15
2023-04-16T20:40:46.410Z,7.51
2023-04-16T20:43:13.269Z,7.50
2023-04-16T20:45:40.838Z,6.69
2023-04-16T20:48:07.674Z,6.89
2023-04-16T20:50:34.321Z,6.71
2023-04-16T20:53:00.949Z,6.75
2023-04-16T20:55:27.430Z,6.74
2023-04-16T20:57:56.373Z,6.70
2023-04-16T21:00:22.847Z,6.62
2023-04-16T21:02:51.590Z,6.73
2023-04-16T21:05:18.593Z,5.10
2023-04-16T21:07:45.481Z,5.33
2023-04-16T21:10:11.999Z,5.27
2023-04-16T21:12:38.642Z,4.73
2023-04-16T21:15:05.265Z,5.15
2023-04-16T21:17:31.879Z,5.11
2023-04-16T21:19:58.522Z,5.38
2023-04-16T21:22:25.095Z,5.70
2023-04-16T21:24:51.665Z,4.74
2023-04-16T21:27:18.186Z,4.31
2023-04-16T21:29:44.987Z,4.28
2023-04-16T21:32:11.660Z,3.99
2023-04-16T21:34:42.331Z,3.77
2023-04-16T21:37:08.928Z,3.66
2023-04-16T21:39:35.695Z,3.62
2023-04-16T21:42:02.481Z,3.75
2023-04-16T21:44:29.069Z,4.24
2023-04-16T21:46:55.891Z,4.08
2023-04-16T21:49:22.448Z,4.42
2023-04-16T21:51:49.253Z,4.16
2023-04-16T21:54:16.018Z,3.93
2023-04-16T21:56:42.606Z,3.70
2023-04-16T21:59:09.104Z,3.86
2023-04-16T22:01:35.842Z,3.80
2023-04-16T22:04:02.432Z,3.67
2023-04-16T22:06:29.263Z,4.18
2023-04-16T22:08:56.723Z,4.23
2023-04-16T22:11:23.482Z,4.60
2023-04-16T22:13:49.952Z,4.23
2023-04-16T22:16:17.513Z,4.29
2023-04-16T22:18:44.340Z,4.53
2023-04-16T22:21:11.186Z,4.48
2023-04-16T22:23:37.810Z,4.60
2023-04-16T22:26:04.361Z,4.76
2023-04-16T22:28:31.166Z,4.84
2023-04-16T22:30:57.714Z,5.22
2023-04-16T22:33:24.443Z,5.17
2023-04-16T22:35:52.007Z,5.07
2023-04-16T22:38:18.581Z,5.73
2023-04-16T22:40:45.184Z,5.26
2023-04-16T22:43:14.748Z,5.55
2023-04-16T22:45:41.557Z,5.95
2023-04-16T22:48:08.179Z,5.93
2023-04-16T22:50:35.022Z,6.68
2023-04-16T22:53:01.805Z,6.50
2023-04-16T22:55:30.883Z,6.81
2023-04-16T22:57:59.863Z,6.65
2023-04-16T23:00:26.409Z,6.23
2023-04-16T23:02:54.409Z,6.11
2023-04-16T23:05:21.206Z,6.10
2023-04-16T23:07:47.969Z,6.15
2023-04-16T23:10:15.862Z,6.15
2023-04-16T23:12:42.394Z,6.61
2023-04-16T23:15:08.955Z,6.48
2023-04-16T23:17:35.556Z,6.55
2023-04-16T23:20:02.654Z,6.33
2023-04-16T23:22:29.664Z,6.37
2023-04-16T23:24:56.472Z,6.56
2023-04-16T23:27:23.483Z,6.27
2023-04-16T23:29:50.019Z,5.75
2023-04-16T23:32:16.643Z,6.02
2023-04-16T23:34:43.333Z,5.54
2023-04-16T23:37:10.952Z,5.54
2023-04-16T23:39:37.394Z,5.24
2023-04-16T23:42:04.269Z,5.51
2023-04-16T23:44:30.753Z,5.23
2023-04-16T23:46:57.525Z,5.39
2023-04-16T23:49:24.317Z,5.21
2023-04-16T23:51:51.039Z,6.22
2023-04-16T23:54:18.628Z,6.26
2023-04-16T23:56:45.233Z,5.51
2023-04-16T23:59:12.056Z,5.35
